Terminal Aerodrome Forecast
Issued by NWS Cleveland, OH

Home | Current Version | Previous Version | Graphics & Text | Print | Product List | Glossary On
Versions: 1 2 3 4 5 6 7 8 9 10 11 12 13 14 15 16 17 18 19 20 21 22 23 24 25 26 27 28 29 30 31
000
FTUS41 KCLE 010300 AAB
TAFCLE
TAF AMD
KCLE 010304Z 0103/0206 01004KT P6SM SCT025 BKN035
     FM010400 01003KT P6SM SCT035
     FM010800 02003KT 5SM BR BKN008
      TEMPO 0108/0112 2SM BR BKN005
     FM011400 07004KT P6SM BKN012
     FM011800 04006KT P6SM BKN020=

USA.gov is the U.S. government's official web portal to all federal, state and local government web resources and services.